KFFT

Details ICAO KFFT (FFT)
Name CAPITAL CITY
Region United States
Timezone America/New_York (UTC-5.0)
Plans Departing 2
Arriving 4
Stats Elevation 803 ft / 245 m (AMSL)
Location 38.182518° -84.904724°
Runways 1
Magnetic Variation 5.421° W
Sunrise 2017-12-13 12:49:09 UTC / 2017-12-13 07:49:09 Local
Sunset 2017-12-13 22:21:32 UTC / 2017-12-13 17:21:32 Local
Advertisement - Login to hide

Runways

ID Width Length Bearing (true) Bearing (mag) Surface Threshold Offset Overrun Length
06 100 ft / 30 m 4,999 ft / 1,524 m 63.79° 69.21° Asphalt 0 ft / 0 m 0 ft / 0 m
24 100 ft / 30 m 4,999 ft / 1,524 m 243.80° 249.22° Asphalt 0 ft / 0 m 0 ft / 0 m

Approach Navaids

Runway Type Ident Frequency Range Bearing (true) Bearing (mag) Slope Elevation
24 Localiser IFFT 109.95 MHz 18 nm / 33 km 243.80° 249.22° - 810 ft / 247 m (AMSL)
24 DME IFFT 109.95 MHz 18 nm / 33 km - - - 821 ft / 250 m (AMSL)

Map

Weather


0- 5 10 15 20 25 30 35+ Temperature / ° C

Clouds and Precipitation
Forecast for 2017-12-13 12:00 UTC. Updated 2 hours ago

Ground ~20,000 ft ~40,000 ft Winds

METAR

KFFT 131153Z AUTO 18003KT 10SM CLR M08/M14 A2995 RMK AO2 SLP153 T10781139 11067 21089 56010

TAF

Not found

Frequencies

Recorded 119.27 MHz ASOS
Clearance 118.10 MHz CLNC DEL
Unicom 122.80 MHz CTAF/UNICOM
Approach 120.75 MHz LEXINGTON APP/DEP
Warning: Do not use this data for real-world aviation or navigation. No guarantee of current accuracy is given.